sensor_id;sensor_type;location;lat;lon;timestamp;P1;durP1;ratioP1;P2;durP2;ratioP2
69917;SDS011;57203;42.672;23.334;2023-08-06T00:00:45;5.3;;;3.6;;
69917;SDS011;57203;42.672;23.334;2023-08-06T00:01:45;5.3;;;3.3;;
69917;SDS011;57203;42.672;23.334;2023-08-06T00:02:45;5.6;;;3.6;;
69917;SDS011;57203;42.672;23.334;2023-08-06T00:03:46;5.3;;;3.5;;
69917;SDS011;57203;42.672;23.334;2023-08-06T00:04:46;5.3;;;4.2;;
69917;SDS011;57203;42.672;23.334;2023-08-06T00:05:46;7.5;;;4.3;;
69917;SDS011;57203;42.672;23.334;2023-08-06T00:06:46;5.8;;;4.5;;
69917;SDS011;57203;42.672;23.334;2023-08-06T00:08:47;9.4;;;4.3;;
69917;SDS011;57203;42.672;23.334;2023-08-06T00:09:47;7.4;;;3.9;;
69917;SDS011;57203;42.672;23.334;2023-08-06T00:10:47;6.5;;;3.7;;
69917;SDS011;57203;42.672;23.334;2023-08-06T00:11:47;7.3;;;4.3;;
69917;SDS011;57203;42.672;23.334;2023-08-06T00:12:48;6.5;;;4.0;;
69917;SDS011;57203;42.672;23.334;2023-08-06T00:13:48;5.8;;;3.9;;
69917;SDS011;57203;42.672;23.334;2023-08-06T00:14:49;6.9;;;4.8;;
69917;SDS011;57203;42.672;23.334;2023-08-06T00:18:49;8.3;;;4.4;;
69917;SDS011;57203;42.672;23.334;2023-08-06T00:19:49;7.3;;;4.2;;
69917;SDS011;57203;42.672;23.334;2023-08-06T00:20:50;7.3;;;4.3;;
69917;SDS011;57203;42.672;23.334;2023-08-06T00:21:50;6.9;;;4.2;;
69917;SDS011;57203;42.672;23.334;2023-08-06T00:22:50;7.8;;;4.1;;
69917;SDS011;57203;42.672;23.334;2023-08-06T00:23:50;6.8;;;4.4;;
69917;SDS011;57203;42.672;23.334;2023-08-06T00:24:51;7.6;;;4.5;;
69917;SDS011;57203;42.672;23.334;2023-08-06T00:25:51;7.4;;;4.6;;
69917;SDS011;57203;42.672;23.334;2023-08-06T00:26:51;7.4;;;4.1;;
69917;SDS011;57203;42.672;23.334;2023-08-06T00:27:51;5.8;;;4.5;;
69917;SDS011;57203;42.672;23.334;2023-08-06T00:28:51;7.1;;;4.6;;
69917;SDS011;57203;42.672;23.334;2023-08-06T00:29:52;7.6;;;4.2;;
69917;SDS011;57203;42.672;23.334;2023-08-06T00:30:52;6.9;;;4.3;;
69917;SDS011;57203;42.672;23.334;2023-08-06T00:31:52;6.1;;;3.9;;
69917;SDS011;57203;42.672;23.334;2023-08-06T00:33:53;6.9;;;4.3;;
69917;SDS011;57203;42.672;23.334;2023-08-06T00:34:53;6.1;;;3.9;;
69917;SDS011;57203;42.672;23.334;2023-08-06T00:35:53;5.5;;;4.0;;
69917;SDS011;57203;42.672;23.334;2023-08-06T00:36:53;5.7;;;4.4;;
69917;SDS011;57203;42.672;23.334;2023-08-06T00:37:54;7.1;;;4.7;;
69917;SDS011;57203;42.672;23.334;2023-08-06T00:38:54;6.6;;;4.3;;
69917;SDS011;57203;42.672;23.334;2023-08-06T00:39:54;6.2;;;4.0;;
69917;SDS011;57203;42.672;23.334;2023-08-06T00:40:54;6.2;;;3.8;;
69917;SDS011;57203;42.672;23.334;2023-08-06T00:43:55;5.9;;;4.3;;
69917;SDS011;57203;42.672;23.334;2023-08-06T00:44:55;8.5;;;3.9;;
69917;SDS011;57203;42.672;23.334;2023-08-06T00:45:56;5.5;;;4.2;;
69917;SDS011;57203;42.672;23.334;2023-08-06T00:47:56;6.5;;;4.5;;
69917;SDS011;57203;42.672;23.334;2023-08-06T00:48:56;7.4;;;3.9;;
69917;SDS011;57203;42.672;23.334;2023-08-06T00:49:56;5.8;;;4.4;;
69917;SDS011;57203;42.672;23.334;2023-08-06T00:50:57;6.9;;;4.5;;
69917;SDS011;57203;42.672;23.334;2023-08-06T00:51:57;6.9;;;4.2;;
69917;SDS011;57203;42.672;23.334;2023-08-06T00:52:57;6.9;;;4.4;;
69917;SDS011;57203;42.672;23.334;2023-08-06T00:53:57;6.3;;;4.8;;
69917;SDS011;57203;42.672;23.334;2023-08-06T00:54:58;7.6;;;4.2;;
69917;SDS011;57203;42.672;23.334;2023-08-06T00:56:58;6.5;;;4.7;;
69917;SDS011;57203;42.672;23.334;2023-08-06T00:57:58;7.9;;;4.6;;
69917;SDS011;57203;42.672;23.334;2023-08-06T00:58:59;7.0;;;4.8;;
69917;SDS011;57203;42.672;23.334;2023-08-06T00:59:59;7.3;;;4.4;;
69917;SDS011;57203;42.672;23.334;2023-08-06T01:00:59;6.0;;;4.3;;
69917;SDS011;57203;42.672;23.334;2023-08-06T01:03:00;6.3;;;4.7;;
69917;SDS011;57203;42.672;23.334;2023-08-06T01:04:00;7.2;;;4.6;;
69917;SDS011;57203;42.672;23.334;2023-08-06T01:05:00;7.6;;;4.7;;
69917;SDS011;57203;42.672;23.334;2023-08-06T01:07:03;7.5;;;4.8;;
69917;SDS011;57203;42.672;23.334;2023-08-06T01:08:07;8.7;;;5.0;;
69917;SDS011;57203;42.672;23.334;2023-08-06T01:09:02;8.7;;;4.9;;
69917;SDS011;57203;42.672;23.334;2023-08-06T01:10:07;6.5;;;4.3;;
69917;SDS011;57203;42.672;23.334;2023-08-06T01:11:05;6.5;;;4.6;;
69917;SDS011;57203;42.672;23.334;2023-08-06T01:12:05;6.1;;;4.9;;
69917;SDS011;57203;42.672;23.334;2023-08-06T01:14:05;6.4;;;5.2;;
69917;SDS011;57203;42.672;23.334;2023-08-06T01:16:03;8.5;;;4.7;;
69917;SDS011;57203;42.672;23.334;2023-08-06T01:17:03;7.4;;;4.8;;
69917;SDS011;57203;42.672;23.334;2023-08-06T01:18:03;7.3;;;5.6;;
69917;SDS011;57203;42.672;23.334;2023-08-06T01:19:03;8.1;;;4.7;;
69917;SDS011;57203;42.672;23.334;2023-08-06T01:20:04;7.9;;;5.1;;
69917;SDS011;57203;42.672;23.334;2023-08-06T01:23:04;9.8;;;5.2;;
69917;SDS011;57203;42.672;23.334;2023-08-06T01:24:05;7.6;;;5.5;;
69917;SDS011;57203;42.672;23.334;2023-08-06T01:25:05;8.7;;;5.3;;
69917;SDS011;57203;42.672;23.334;2023-08-06T01:26:07;10.4;;;5.1;;
69917;SDS011;57203;42.672;23.334;2023-08-06T01:27:06;7.8;;;4.9;;
69917;SDS011;57203;42.672;23.334;2023-08-06T01:28:07;8.2;;;4.5;;
69917;SDS011;57203;42.672;23.334;2023-08-06T01:29:07;8.1;;;4.9;;
69917;SDS011;57203;42.672;23.334;2023-08-06T01:30:07;7.2;;;4.3;;
69917;SDS011;57203;42.672;23.334;2023-08-06T01:31:07;5.6;;;4.2;;
69917;SDS011;57203;42.672;23.334;2023-08-06T01:32:07;5.9;;;4.8;;
69917;SDS011;57203;42.672;23.334;2023-08-06T01:33:07;6.3;;;4.6;;
69917;SDS011;57203;42.672;23.334;2023-08-06T01:35:07;6.6;;;4.5;;
69917;SDS011;57203;42.672;23.334;2023-08-06T01:36:07;6.8;;;4.6;;
69917;SDS011;57203;42.672;23.334;2023-08-06T01:37:08;6.5;;;4.2;;
69917;SDS011;57203;42.672;23.334;2023-08-06T01:38:08;7.2;;;4.4;;
69917;SDS011;57203;42.672;23.334;2023-08-06T01:39:08;6.2;;;4.9;;
69917;SDS011;57203;42.672;23.334;2023-08-06T01:40:09;6.9;;;4.5;;
69917;SDS011;57203;42.672;23.334;2023-08-06T01:41:09;6.1;;;4.9;;
69917;SDS011;57203;42.672;23.334;2023-08-06T01:42:09;6.1;;;4.4;;
69917;SDS011;57203;42.672;23.334;2023-08-06T01:43:09;6.8;;;4.8;;
69917;SDS011;57203;42.672;23.334;2023-08-06T01:44:09;6.0;;;4.6;;
69917;SDS011;57203;42.672;23.334;2023-08-06T01:45:10;6.4;;;4.2;;
69917;SDS011;57203;42.672;23.334;2023-08-06T01:46:10;6.0;;;5.2;;
69917;SDS011;57203;42.672;23.334;2023-08-06T01:47:10;7.3;;;4.6;;
69917;SDS011;57203;42.672;23.334;2023-08-06T01:48:10;6.5;;;5.7;;
69917;SDS011;57203;42.672;23.334;2023-08-06T01:49:11;7.7;;;5.0;;
69917;SDS011;57203;42.672;23.334;2023-08-06T01:50:11;7.0;;;5.9;;
69917;SDS011;57203;42.672;23.334;2023-08-06T01:51:11;8.5;;;9.0;;
69917;SDS011;57203;42.672;23.334;2023-08-06T01:52:11;22.5;;;14.5;;
69917;SDS011;57203;42.672;23.334;2023-08-06T01:53:11;22.5;;;14.1;;
69917;SDS011;57203;42.672;23.334;2023-08-06T01:54:12;22.0;;;16.6;;
69917;SDS011;57203;42.672;23.334;2023-08-06T01:55:12;27.4;;;18.1;;
69917;SDS011;57203;42.672;23.334;2023-08-06T01:56:12;28.3;;;15.6;;
69917;SDS011;57203;42.672;23.334;2023-08-06T01:57:12;22.0;;;14.5;;
69917;SDS011;57203;42.672;23.334;2023-08-06T01:58:13;22.0;;;11.8;;
69917;SDS011;57203;42.672;23.334;2023-08-06T01:59:13;18.2;;;10.2;;
69917;SDS011;57203;42.672;23.334;2023-08-06T02:00:13;16.0;;;8.0;;
69917;SDS011;57203;42.672;23.334;2023-08-06T02:01:13;11.5;;;8.8;;
69917;SDS011;57203;42.672;23.334;2023-08-06T02:02:14;11.5;;;7.0;;
69917;SDS011;57203;42.672;23.334;2023-08-06T02:04:14;10.6;;;7.2;;
69917;SDS011;57203;42.672;23.334;2023-08-06T02:06:14;11.2;;;6.5;;
69917;SDS011;57203;42.672;23.334;2023-08-06T02:08:15;8.6;;;6.2;;
69917;SDS011;57203;42.672;23.334;2023-08-06T02:09:15;11.3;;;5.1;;
69917;SDS011;57203;42.672;23.334;2023-08-06T02:10:15;8.1;;;6.0;;
69917;SDS011;57203;42.672;23.334;2023-08-06T02:11:16;7.7;;;5.4;;
69917;SDS011;57203;42.672;23.334;2023-08-06T02:12:16;7.7;;;5.5;;
69917;SDS011;57203;42.672;23.334;2023-08-06T02:14:16;7.1;;;5.2;;
69917;SDS011;57203;42.672;23.334;2023-08-06T02:15:17;8.5;;;5.0;;
69917;SDS011;57203;42.672;23.334;2023-08-06T02:16:17;7.7;;;4.6;;
69917;SDS011;57203;42.672;23.334;2023-08-06T02:17:17;7.3;;;5.1;;
69917;SDS011;57203;42.672;23.334;2023-08-06T02:18:17;5.9;;;4.6;;
69917;SDS011;57203;42.672;23.334;2023-08-06T02:19:17;6.5;;;4.0;;
69917;SDS011;57203;42.672;23.334;2023-08-06T02:20:18;4.9;;;4.7;;
69917;SDS011;57203;42.672;23.334;2023-08-06T02:21:18;5.5;;;4.5;;
69917;SDS011;57203;42.672;23.334;2023-08-06T02:22:18;5.7;;;4.4;;
69917;SDS011;57203;42.672;23.334;2023-08-06T02:23:18;5.7;;;4.2;;
69917;SDS011;57203;42.672;23.334;2023-08-06T02:24:19;5.2;;;4.4;;
69917;SDS011;57203;42.672;23.334;2023-08-06T02:25:19;6.8;;;4.5;;
69917;SDS011;57203;42.672;23.334;2023-08-06T02:26:19;5.2;;;4.3;;
69917;SDS011;57203;42.672;23.334;2023-08-06T02:27:19;6.0;;;4.5;;
69917;SDS011;57203;42.672;23.334;2023-08-06T02:28:19;6.0;;;4.3;;
69917;SDS011;57203;42.672;23.334;2023-08-06T02:29:20;6.9;;;5.0;;
69917;SDS011;57203;42.672;23.334;2023-08-06T02:30:20;6.5;;;4.0;;
69917;SDS011;57203;42.672;23.334;2023-08-06T02:31:20;5.1;;;5.3;;
69917;SDS011;57203;42.672;23.334;2023-08-06T02:32:20;7.8;;;4.9;;
69917;SDS011;57203;42.672;23.334;2023-08-06T02:33:21;7.3;;;1.5;;
69917;SDS011;57203;42.672;23.334;2023-08-06T02:34:21;3.6;;;0.9;;
69917;SDS011;57203;42.672;23.334;2023-08-06T02:35:22;3.0;;;0.6;;
69917;SDS011;57203;42.672;23.334;2023-08-06T02:37:22;1.0;;;0.3;;
69917;SDS011;57203;42.672;23.334;2023-08-06T02:38:22;0.3;;;0.7;;
69917;SDS011;57203;42.672;23.334;2023-08-06T02:39:22;1.4;;;1.4;;
69917;SDS011;57203;42.672;23.334;2023-08-06T02:40:22;2.8;;;0.6;;
69917;SDS011;57203;42.672;23.334;2023-08-06T02:41:23;1.3;;;1.1;;
69917;SDS011;57203;42.672;23.334;2023-08-06T02:42:23;1.3;;;0.3;;
69917;SDS011;57203;42.672;23.334;2023-08-06T02:43:23;0.3;;;0.5;;
69917;SDS011;57203;42.672;23.334;2023-08-06T02:44:23;0.5;;;0.9;;
69917;SDS011;57203;42.672;23.334;2023-08-06T02:45:23;1.9;;;0.8;;
69917;SDS011;57203;42.672;23.334;2023-08-06T02:46:24;1.3;;;0.5;;
69917;SDS011;57203;42.672;23.334;2023-08-06T02:47:24;0.6;;;0.2;;
69917;SDS011;57203;42.672;23.334;2023-08-06T02:48:24;0.3;;;0.9;;
69917;SDS011;57203;42.672;23.334;2023-08-06T02:49:24;1.6;;;0.4;;
69917;SDS011;57203;42.672;23.334;2023-08-06T02:50:25;0.5;;;0.5;;
69917;SDS011;57203;42.672;23.334;2023-08-06T02:52:25;0.9;;;0.6;;
69917;SDS011;57203;42.672;23.334;2023-08-06T02:53:25;0.9;;;0.4;;
69917;SDS011;57203;42.672;23.334;2023-08-06T02:54:26;0.5;;;0.6;;
69917;SDS011;57203;42.672;23.334;2023-08-06T02:57:26;0.6;;;0.4;;
69917;SDS011;57203;42.672;23.334;2023-08-06T02:58:26;0.4;;;0.5;;
69917;SDS011;57203;42.672;23.334;2023-08-06T02:59:27;0.9;;;1.0;;
69917;SDS011;57203;42.672;23.334;2023-08-06T03:00:27;2.6;;;1.1;;
69917;SDS011;57203;42.672;23.334;2023-08-06T03:01:27;1.5;;;0.6;;
69917;SDS011;57203;42.672;23.334;2023-08-06T03:03:28;0.8;;;1.4;;
69917;SDS011;57203;42.672;23.334;2023-08-06T03:04:28;4.4;;;0.5;;
69917;SDS011;57203;42.672;23.334;2023-08-06T03:05:28;1.4;;;0.7;;
69917;SDS011;57203;42.672;23.334;2023-08-06T03:06:28;0.8;;;0.4;;
69917;SDS011;57203;42.672;23.334;2023-08-06T03:07:29;0.4;;;0.2;;
69917;SDS011;57203;42.672;23.334;2023-08-06T03:08:29;0.2;;;0.4;;
69917;SDS011;57203;42.672;23.334;2023-08-06T03:10:29;0.5;;;0.5;;
69917;SDS011;57203;42.672;23.334;2023-08-06T03:11:30;0.6;;;1.2;;
69917;SDS011;57203;42.672;23.334;2023-08-06T03:12:30;2.2;;;0.5;;
69917;SDS011;57203;42.672;23.334;2023-08-06T03:13:30;0.5;;;0.4;;
69917;SDS011;57203;42.672;23.334;2023-08-06T03:15:31;0.4;;;0.3;;
69917;SDS011;57203;42.672;23.334;2023-08-06T03:16:31;1.2;;;0.7;;
69917;SDS011;57203;42.672;23.334;2023-08-06T03:17:31;1.2;;;0.4;;
69917;SDS011;57203;42.672;23.334;2023-08-06T03:18:31;1.1;;;0.5;;
69917;SDS011;57203;42.672;23.334;2023-08-06T03:20:32;0.5;;;0.6;;
69917;SDS011;57203;42.672;23.334;2023-08-06T03:21:32;0.6;;;0.4;;
69917;SDS011;57203;42.672;23.334;2023-08-06T03:22:32;0.3;;;0.3;;
69917;SDS011;57203;42.672;23.334;2023-08-06T03:23:32;0.3;;;0.5;;
69917;SDS011;57203;42.672;23.334;2023-08-06T03:24:33;0.5;;;0.2;;
69917;SDS011;57203;42.672;23.334;2023-08-06T03:25:35;0.2;;;0.6;;
69917;SDS011;57203;42.672;23.334;2023-08-06T03:26:33;0.7;;;0.4;;
69917;SDS011;57203;42.672;23.334;2023-08-06T03:27:33;0.4;;;1.0;;
69917;SDS011;57203;42.672;23.334;2023-08-06T03:28:33;1.0;;;0.7;;
69917;SDS011;57203;42.672;23.334;2023-08-06T03:30:34;1.6;;;0.4;;
69917;SDS011;57203;42.672;23.334;2023-08-06T03:31:34;2.4;;;1.4;;
69917;SDS011;57203;42.672;23.334;2023-08-06T03:32:34;0.7;;;0.6;;
69917;SDS011;57203;42.672;23.334;2023-08-06T03:34:35;0.6;;;0.5;;
69917;SDS011;57203;42.672;23.334;2023-08-06T03:35:35;0.6;;;0.7;;
69917;SDS011;57203;42.672;23.334;2023-08-06T03:36:35;0.3;;;0.3;;
69917;SDS011;57203;42.672;23.334;2023-08-06T03:37:36;0.5;;;0.4;;
69917;SDS011;57203;42.672;23.334;2023-08-06T03:38:36;0.5;;;0.7;;
69917;SDS011;57203;42.672;23.334;2023-08-06T03:39:36;0.9;;;0.3;;
69917;SDS011;57203;42.672;23.334;2023-08-06T03:40:36;0.3;;;0.4;;
69917;SDS011;57203;42.672;23.334;2023-08-06T03:41:37;0.9;;;0.3;;
69917;SDS011;57203;42.672;23.334;2023-08-06T03:42:37;0.3;;;0.4;;
69917;SDS011;57203;42.672;23.334;2023-08-06T03:43:37;0.4;;;0.5;;
69917;SDS011;57203;42.672;23.334;2023-08-06T03:44:38;0.5;;;0.6;;
69917;SDS011;57203;42.672;23.334;2023-08-06T03:45:38;0.8;;;0.4;;
69917;SDS011;57203;42.672;23.334;2023-08-06T03:46:38;0.4;;;0.6;;
69917;SDS011;57203;42.672;23.334;2023-08-06T03:47:38;0.9;;;0.2;;
69917;SDS011;57203;42.672;23.334;2023-08-06T03:48:38;0.2;;;0.7;;
69917;SDS011;57203;42.672;23.334;2023-08-06T03:50:39;1.0;;;0.6;;
69917;SDS011;57203;42.672;23.334;2023-08-06T03:51:39;0.6;;;0.1;;
69917;SDS011;57203;42.672;23.334;2023-08-06T03:52:39;0.1;;;0.8;;
69917;SDS011;57203;42.672;23.334;2023-08-06T03:53:40;1.5;;;0.4;;
69917;SDS011;57203;42.672;23.334;2023-08-06T03:54:40;0.4;;;0.6;;
69917;SDS011;57203;42.672;23.334;2023-08-06T03:55:40;1.0;;;0.4;;
69917;SDS011;57203;42.672;23.334;2023-08-06T03:56:42;0.4;;;0.6;;
69917;SDS011;57203;42.672;23.334;2023-08-06T03:57:40;0.6;;;0.3;;
69917;SDS011;57203;42.672;23.334;2023-08-06T03:58:41;0.4;;;0.6;;
69917;SDS011;57203;42.672;23.334;2023-08-06T03:59:41;0.6;;;0.4;;
69917;SDS011;57203;42.672;23.334;2023-08-06T04:00:41;0.4;;;0.2;;
69917;SDS011;57203;42.672;23.334;2023-08-06T04:01:41;0.2;;;0.9;;
69917;SDS011;57203;42.672;23.334;2023-08-06T04:02:42;1.0;;;0.5;;
69917;SDS011;57203;42.672;23.334;2023-08-06T04:05:42;1.2;;;0.8;;
69917;SDS011;57203;42.672;23.334;2023-08-06T04:07:43;1.0;;;0.3;;
69917;SDS011;57203;42.672;23.334;2023-08-06T04:08:43;0.4;;;0.5;;
69917;SDS011;57203;42.672;23.334;2023-08-06T04:09:52;0.6;;;0.2;;
69917;SDS011;57203;42.672;23.334;2023-08-06T04:10:44;0.2;;;0.5;;
69917;SDS011;57203;42.672;23.334;2023-08-06T04:11:44;0.5;;;0.8;;
69917;SDS011;57203;42.672;23.334;2023-08-06T04:12:44;1.4;;;0.6;;
69917;SDS011;57203;42.672;23.334;2023-08-06T04:13:44;1.0;;;0.4;;
69917;SDS011;57203;42.672;23.334;2023-08-06T04:14:45;0.4;;;0.3;;
69917;SDS011;57203;42.672;23.334;2023-08-06T04:15:45;0.7;;;0.7;;
69917;SDS011;57203;42.672;23.334;2023-08-06T04:16:45;0.7;;;0.5;;
69917;SDS011;57203;42.672;23.334;2023-08-06T04:17:45;0.7;;;0.2;;
69917;SDS011;57203;42.672;23.334;2023-08-06T04:18:46;0.6;;;0.5;;
69917;SDS011;57203;42.672;23.334;2023-08-06T04:19:46;1.5;;;1.0;;
69917;SDS011;57203;42.672;23.334;2023-08-06T04:20:46;4.6;;;0.5;;
69917;SDS011;57203;42.672;23.334;2023-08-06T04:21:46;0.5;;;0.4;;
69917;SDS011;57203;42.672;23.334;2023-08-06T04:23:47;0.4;;;0.3;;
69917;SDS011;57203;42.672;23.334;2023-08-06T04:24:47;0.3;;;0.9;;
69917;SDS011;57203;42.672;23.334;2023-08-06T04:25:47;1.0;;;0.3;;
69917;SDS011;57203;42.672;23.334;2023-08-06T04:26:47;0.6;;;0.6;;
69917;SDS011;57203;42.672;23.334;2023-08-06T04:27:48;0.5;;;0.5;;
69917;SDS011;57203;42.672;23.334;2023-08-06T04:28:48;0.5;;;0.3;;
69917;SDS011;57203;42.672;23.334;2023-08-06T04:29:48;0.5;;;0.7;;
69917;SDS011;57203;42.672;23.334;2023-08-06T04:30:48;1.0;;;0.8;;
69917;SDS011;57203;42.672;23.334;2023-08-06T04:31:49;1.5;;;0.6;;
69917;SDS011;57203;42.672;23.334;2023-08-06T04:32:49;0.6;;;0.7;;
69917;SDS011;57203;42.672;23.334;2023-08-06T04:33:49;0.7;;;0.1;;
69917;SDS011;57203;42.672;23.334;2023-08-06T04:34:49;0.2;;;0.3;;
69917;SDS011;57203;42.672;23.334;2023-08-06T04:35:53;0.3;;;0.5;;
69917;SDS011;57203;42.672;23.334;2023-08-06T04:36:50;0.5;;;0.7;;
69917;SDS011;57203;42.672;23.334;2023-08-06T04:37:50;0.9;;;0.2;;
69917;SDS011;57203;42.672;23.334;2023-08-06T04:39:51;0.2;;;0.3;;
69917;SDS011;57203;42.672;23.334;2023-08-06T04:40:51;1.2;;;0.6;;
69917;SDS011;57203;42.672;23.334;2023-08-06T04:41:51;2.3;;;0.8;;
69917;SDS011;57203;42.672;23.334;2023-08-06T04:42:51;0.8;;;0.6;;
69917;SDS011;57203;42.672;23.334;2023-08-06T04:43:52;0.6;;;0.4;;
69917;SDS011;57203;42.672;23.334;2023-08-06T04:44:52;0.4;;;0.2;;
69917;SDS011;57203;42.672;23.334;2023-08-06T04:45:54;0.2;;;0.9;;
69917;SDS011;57203;42.672;23.334;2023-08-06T04:46:52;1.1;;;1.1;;
69917;SDS011;57203;42.672;23.334;2023-08-06T04:47:52;0.7;;;0.7;;
69917;SDS011;57203;42.672;23.334;2023-08-06T04:48:53;0.7;;;0.5;;
69917;SDS011;57203;42.672;23.334;2023-08-06T04:49:53;0.5;;;0.7;;
69917;SDS011;57203;42.672;23.334;2023-08-06T04:50:53;0.9;;;0.1;;
69917;SDS011;57203;42.672;23.334;2023-08-06T04:51:53;0.1;;;0.5;;
69917;SDS011;57203;42.672;23.334;2023-08-06T04:52:54;0.5;;;1.1;;
69917;SDS011;57203;42.672;23.334;2023-08-06T04:53:54;2.1;;;0.4;;
69917;SDS011;57203;42.672;23.334;2023-08-06T04:54:54;0.6;;;0.3;;
69917;SDS011;57203;42.672;23.334;2023-08-06T04:56:55;0.7;;;0.4;;
69917;SDS011;57203;42.672;23.334;2023-08-06T04:57:55;0.7;;;0.5;;
69917;SDS011;57203;42.672;23.334;2023-08-06T04:58:55;1.0;;;0.7;;
69917;SDS011;57203;42.672;23.334;2023-08-06T04:59:55;1.0;;;1.0;;
69917;SDS011;57203;42.672;23.334;2023-08-06T05:00:56;2.1;;;0.8;;
69917;SDS011;57203;42.672;23.334;2023-08-06T05:01:56;1.2;;;0.4;;
69917;SDS011;57203;42.672;23.334;2023-08-06T05:02:56;1.2;;;0.5;;
69917;SDS011;57203;42.672;23.334;2023-08-06T05:03:56;0.7;;;0.6;;
69917;SDS011;57203;42.672;23.334;2023-08-06T05:04:56;0.6;;;1.3;;
69917;SDS011;57203;42.672;23.334;2023-08-06T05:05:57;1.4;;;1.4;;
69917;SDS011;57203;42.672;23.334;2023-08-06T05:06:57;2.6;;;0.8;;
69917;SDS011;57203;42.672;23.334;2023-08-06T05:07:57;0.8;;;0.7;;
69917;SDS011;57203;42.672;23.334;2023-08-06T05:09:58;0.9;;;1.0;;
69917;SDS011;57203;42.672;23.334;2023-08-06T05:12:00;1.0;;;1.1;;
69917;SDS011;57203;42.672;23.334;2023-08-06T05:12:58;2.8;;;0.7;;
69917;SDS011;57203;42.672;23.334;2023-08-06T05:13:59;0.9;;;0.8;;
69917;SDS011;57203;42.672;23.334;2023-08-06T05:14:59;1.0;;;0.9;;
69917;SDS011;57203;42.672;23.334;2023-08-06T05:15:59;1.7;;;1.1;;
69917;SDS011;57203;42.672;23.334;2023-08-06T05:16:59;2.3;;;0.3;;
69917;SDS011;57203;42.672;23.334;2023-08-06T05:18:00;0.5;;;0.4;;
69917;SDS011;57203;42.672;23.334;2023-08-06T05:19:00;0.4;;;0.6;;
69917;SDS011;57203;42.672;23.334;2023-08-06T05:21:00;0.6;;;0.3;;
69917;SDS011;57203;42.672;23.334;2023-08-06T05:22:01;0.3;;;0.8;;
69917;SDS011;57203;42.672;23.334;2023-08-06T05:23:01;0.8;;;0.6;;
69917;SDS011;57203;42.672;23.334;2023-08-06T05:24:01;0.6;;;0.5;;
69917;SDS011;57203;42.672;23.334;2023-08-06T05:25:01;0.6;;;0.3;;
69917;SDS011;57203;42.672;23.334;2023-08-06T05:26:01;0.3;;;0.8;;
69917;SDS011;57203;42.672;23.334;2023-08-06T05:27:02;1.0;;;0.3;;
69917;SDS011;57203;42.672;23.334;2023-08-06T05:28:02;0.3;;;0.6;;
69917;SDS011;57203;42.672;23.334;2023-08-06T05:29:02;2.0;;;0.7;;
69917;SDS011;57203;42.672;23.334;2023-08-06T05:30:03;0.7;;;1.0;;
69917;SDS011;57203;42.672;23.334;2023-08-06T05:31:03;1.8;;;0.4;;
69917;SDS011;57203;42.672;23.334;2023-08-06T05:32:03;0.6;;;0.6;;
69917;SDS011;57203;42.672;23.334;2023-08-06T05:33:03;0.6;;;1.6;;
69917;SDS011;57203;42.672;23.334;2023-08-06T05:34:03;1.5;;;1.2;;
69917;SDS011;57203;42.672;23.334;2023-08-06T05:35:04;1.5;;;0.8;;
69917;SDS011;57203;42.672;23.334;2023-08-06T05:37:05;0.9;;;1.0;;
69917;SDS011;57203;42.672;23.334;2023-08-06T05:38:04;2.1;;;0.7;;
69917;SDS011;57203;42.672;23.334;2023-08-06T05:39:05;0.7;;;0.6;;
69917;SDS011;57203;42.672;23.334;2023-08-06T05:40:05;0.6;;;0.9;;
69917;SDS011;57203;42.672;23.334;2023-08-06T05:41:05;1.0;;;1.1;;
69917;SDS011;57203;42.672;23.334;2023-08-06T05:42:05;1.2;;;1.0;;
69917;SDS011;57203;42.672;23.334;2023-08-06T05:43:06;1.3;;;1.4;;
69917;SDS011;57203;42.672;23.334;2023-08-06T05:44:06;2.3;;;1.1;;
69917;SDS011;57203;42.672;23.334;2023-08-06T05:45:06;1.1;;;0.8;;
69917;SDS011;57203;42.672;23.334;2023-08-06T05:46:06;0.8;;;1.1;;
69917;SDS011;57203;42.672;23.334;2023-08-06T05:47:07;1.2;;;1.0;;
69917;SDS011;57203;42.672;23.334;2023-08-06T05:48:07;1.7;;;1.6;;
69917;SDS011;57203;42.672;23.334;2023-08-06T05:49:07;1.7;;;1.7;;
69917;SDS011;57203;42.672;23.334;2023-08-06T05:50:07;2.8;;;1.1;;
69917;SDS011;57203;42.672;23.334;2023-08-06T05:51:08;1.2;;;1.4;;
69917;SDS011;57203;42.672;23.334;2023-08-06T05:52:08;1.6;;;1.6;;
69917;SDS011;57203;42.672;23.334;2023-08-06T05:53:08;2.5;;;2.1;;
69917;SDS011;57203;42.672;23.334;2023-08-06T05:54:11;2.5;;;0.7;;
69917;SDS011;57203;42.672;23.334;2023-08-06T05:55:08;0.7;;;0.9;;
69917;SDS011;57203;42.672;23.334;2023-08-06T05:56:09;1.7;;;0.5;;
69917;SDS011;57203;42.672;23.334;2023-08-06T05:57:09;0.8;;;1.0;;
69917;SDS011;57203;42.672;23.334;2023-08-06T05:58:09;1.1;;;0.4;;
69917;SDS011;57203;42.672;23.334;2023-08-06T05:59:09;0.5;;;0.5;;
69917;SDS011;57203;42.672;23.334;2023-08-06T06:01:10;0.5;;;0.3;;
69917;SDS011;57203;42.672;23.334;2023-08-06T06:02:10;0.4;;;0.1;;
69917;SDS011;57203;42.672;23.334;2023-08-06T06:03:10;0.2;;;0.4;;
69917;SDS011;57203;42.672;23.334;2023-08-06T06:04:11;0.2;;;0.2;;
69917;SDS011;57203;42.672;23.334;2023-08-06T06:05:11;0.2;;;0.4;;
69917;SDS011;57203;42.672;23.334;2023-08-06T06:06:11;0.4;;;0.2;;
69917;SDS011;57203;42.672;23.334;2023-08-06T06:09:12;0.3;;;0.3;;
69917;SDS011;57203;42.672;23.334;2023-08-06T06:10:12;0.3;;;0.8;;
69917;SDS011;57203;42.672;23.334;2023-08-06T06:11:12;5.7;;;0.2;;
69917;SDS011;57203;42.672;23.334;2023-08-06T06:12:13;0.3;;;0.3;;
69917;SDS011;57203;42.672;23.334;2023-08-06T06:13:13;0.6;;;0.6;;
69917;SDS011;57203;42.672;23.334;2023-08-06T06:14:13;0.6;;;3.3;;
69917;SDS011;57203;42.672;23.334;2023-08-06T06:15:13;4.5;;;2.8;;
69917;SDS011;57203;42.672;23.334;2023-08-06T06:16:14;4.3;;;3.0;;
69917;SDS011;57203;42.672;23.334;2023-08-06T06:17:14;3.3;;;2.7;;
69917;SDS011;57203;42.672;23.334;2023-08-06T06:18:14;3.2;;;2.4;;
69917;SDS011;57203;42.672;23.334;2023-08-06T06:19:14;3.9;;;2.9;;
69917;SDS011;57203;42.672;23.334;2023-08-06T06:20:15;3.9;;;2.3;;
69917;SDS011;57203;42.672;23.334;2023-08-06T06:21:15;2.5;;;2.6;;
69917;SDS011;57203;42.672;23.334;2023-08-06T06:22:15;5.4;;;2.5;;
69917;SDS011;57203;42.672;23.334;2023-08-06T06:23:15;4.6;;;2.7;;
69917;SDS011;57203;42.672;23.334;2023-08-06T06:24:16;3.8;;;2.6;;
69917;SDS011;57203;42.672;23.334;2023-08-06T06:25:16;3.8;;;2.2;;
69917;SDS011;57203;42.672;23.334;2023-08-06T06:26:16;2.5;;;2.6;;
69917;SDS011;57203;42.672;23.334;2023-08-06T06:27:16;3.5;;;2.3;;
69917;SDS011;57203;42.672;23.334;2023-08-06T06:28:17;3.5;;;2.1;;
69917;SDS011;57203;42.672;23.334;2023-08-06T06:29:17;2.5;;;2.0;;
69917;SDS011;57203;42.672;23.334;2023-08-06T06:30:17;3.0;;;2.2;;
69917;SDS011;57203;42.672;23.334;2023-08-06T06:31:17;4.3;;;2.0;;
69917;SDS011;57203;42.672;23.334;2023-08-06T06:32:17;2.3;;;1.8;;
69917;SDS011;57203;42.672;23.334;2023-08-06T06:34:18;2.9;;;2.0;;
69917;SDS011;57203;42.672;23.334;2023-08-06T06:35:18;3.4;;;2.1;;
69917;SDS011;57203;42.672;23.334;2023-08-06T06:36:18;3.4;;;1.7;;
69917;SDS011;57203;42.672;23.334;2023-08-06T06:37:19;3.4;;;1.5;;
69917;SDS011;57203;42.672;23.334;2023-08-06T06:38:19;3.0;;;1.4;;
69917;SDS011;57203;42.672;23.334;2023-08-06T06:39:20;1.9;;;1.9;;
69917;SDS011;57203;42.672;23.334;2023-08-06T06:40:19;3.3;;;1.5;;
69917;SDS011;57203;42.672;23.334;2023-08-06T06:41:20;2.0;;;1.7;;
69917;SDS011;57203;42.672;23.334;2023-08-06T06:42:20;2.3;;;1.8;;
69917;SDS011;57203;42.672;23.334;2023-08-06T06:43:20;3.1;;;1.6;;
69917;SDS011;57203;42.672;23.334;2023-08-06T06:44:20;3.9;;;1.8;;
69917;SDS011;57203;42.672;23.334;2023-08-06T06:46:21;3.5;;;1.6;;
69917;SDS011;57203;42.672;23.334;2023-08-06T06:47:21;2.2;;;1.9;;
69917;SDS011;57203;42.672;23.334;2023-08-06T06:48:21;2.6;;;1.7;;
69917;SDS011;57203;42.672;23.334;2023-08-06T06:50:22;2.6;;;1.5;;
69917;SDS011;57203;42.672;23.334;2023-08-06T06:51:22;2.5;;;1.6;;
69917;SDS011;57203;42.672;23.334;2023-08-06T06:52:23;2.0;;;2.0;;
69917;SDS011;57203;42.672;23.334;2023-08-06T06:53:23;2.6;;;1.8;;
69917;SDS011;57203;42.672;23.334;2023-08-06T06:54:23;2.6;;;1.6;;
69917;SDS011;57203;42.672;23.334;2023-08-06T06:56:23;6.0;;;1.7;;